createdAt,value
2019-01-21T00:00:59.639Z,101083.98
2019-01-21T00:03:31.285Z,101086.01
2019-01-21T00:06:04.016Z,101091.66
2019-01-21T00:08:37.010Z,101086.62
2019-01-21T00:11:10.029Z,101089.56
2019-01-21T00:13:43.332Z,101090.46
2019-01-21T00:16:16.426Z,101086.19
2019-01-21T00:18:49.340Z,101086.19
2019-01-21T00:21:22.375Z,101089.86
2019-01-21T00:23:55.072Z,101085.28
2019-01-21T00:26:28.328Z,101084.33
2019-01-21T00:29:01.329Z,101086.38
2019-01-21T00:31:34.061Z,101082.70
2019-01-21T00:34:06.942Z,101085.91
2019-01-21T00:36:39.922Z,101081.09
2019-01-21T00:39:12.572Z,101088.23
2019-01-21T00:41:45.445Z,101067.84
2019-01-21T00:44:18.077Z,101067.84
2019-01-21T00:46:51.517Z,101085.51
2019-01-21T00:49:24.334Z,101063.28
2019-01-21T00:51:57.015Z,101063.28
2019-01-21T00:54:29.715Z,101085.03
2019-01-21T00:57:01.306Z,101083.60
2019-01-21T00:59:34.112Z,101080.28
2019-01-21T01:02:07.081Z,101079.78
2019-01-21T01:04:40.048Z,101086.19
2019-01-21T01:07:13.468Z,101085.78
2019-01-21T01:09:46.052Z,101092.44
2019-01-21T01:12:18.894Z,101090.08
2019-01-21T01:14:52.107Z,101087.48
2019-01-21T01:17:25.126Z,101094.19
2019-01-21T01:19:58.352Z,101098.92
2019-01-21T01:22:31.430Z,101092.89
2019-01-21T01:25:04.129Z,101094.24
2019-01-21T01:27:37.103Z,101095.77
2019-01-21T01:30:12.324Z,101097.05
2019-01-21T01:32:45.022Z,101095.94
2019-01-21T01:35:19.346Z,101097.67
2019-01-21T01:37:52.098Z,101093.17
2019-01-21T01:40:24.977Z,101091.09
2019-01-21T01:42:57.659Z,101098.19
2019-01-21T01:45:31.330Z,101089.91
2019-01-21T01:48:06.347Z,101089.91
2019-01-21T01:50:39.053Z,101096.66
2019-01-21T01:53:12.168Z,101097.56
2019-01-21T01:55:44.929Z,101094.52
2019-01-21T01:58:17.685Z,101104.15
2019-01-21T02:00:50.498Z,101104.66
2019-01-21T02:03:22.956Z,101104.66
2019-01-21T02:05:56.010Z,101101.10
2019-01-21T02:08:29.001Z,101103.70
2019-01-21T02:11:01.782Z,101110.73
2019-01-21T02:13:33.289Z,101108.38
2019-01-21T02:16:05.923Z,101109.48
2019-01-21T02:18:38.335Z,101101.45
2019-01-21T02:21:11.128Z,101103.18
2019-01-21T02:23:44.913Z,101102.52
2019-01-21T02:26:24.669Z,101099.92
2019-01-21T02:29:12.659Z,101095.31
2019-01-21T02:32:53.142Z,101095.81
2019-01-21T02:36:20.409Z,101095.81
2019-01-21T02:39:48.762Z,101090.69
2019-01-21T02:43:07.116Z,101085.73
2019-01-21T02:47:18.559Z,101066.53
2019-01-21T02:51:22.339Z,101076.50
2019-01-21T02:54:45.652Z,101076.50
2019-01-21T02:58:04.466Z,101084.83
2019-01-21T03:01:51.537Z,101087.13
2019-01-21T03:06:10.078Z,101084.92
2019-01-21T03:09:50.346Z,101084.92
2019-01-21T03:13:37.570Z,101086.73
2019-01-21T03:17:25.342Z,101078.12
2019-01-21T03:21:06.072Z,101078.12
2019-01-21T03:25:02.367Z,101082.91
2019-01-21T03:28:37.878Z,101077.66
2019-01-21T03:32:53.679Z,101078.52
2019-01-21T03:37:03.089Z,101080.71
2019-01-21T03:40:58.455Z,101079.28
2019-01-21T03:45:00.032Z,101080.64
2019-01-21T03:48:31.904Z,101084.46
2019-01-21T03:52:04.425Z,101087.97
2019-01-21T03:54:51.046Z,101085.04
2019-01-21T03:58:42.377Z,101084.95
2019-01-21T04:02:17.015Z,101083.70
2019-01-21T04:06:11.336Z,101076.22
2019-01-21T04:10:10.057Z,101085.09
2019-01-21T04:13:41.324Z,101090.44
2019-01-21T04:17:18.890Z,101092.19
2019-01-21T04:20:54.292Z,101084.70
2019-01-21T04:25:10.630Z,101086.80
2019-01-21T04:28:42.455Z,101084.16
2019-01-21T04:32:22.998Z,101084.16
2019-01-21T04:36:00.396Z,101099.75
2019-01-21T04:39:26.504Z,101101.59
2019-01-21T04:43:32.328Z,101102.59
2019-01-21T04:47:36.389Z,101094.03
2019-01-21T04:51:45.357Z,101095.78
2019-01-21T04:55:32.904Z,101085.66
2019-01-21T04:59:36.801Z,101089.44
2019-01-21T05:03:08.926Z,101086.72
2019-01-21T05:06:26.779Z,101086.50
2019-01-21T05:09:44.820Z,101085.89
2019-01-21T05:13:05.414Z,101088.82
2019-01-21T05:16:35.283Z,101090.94
2019-01-21T05:20:09.329Z,101092.56
2019-01-21T05:24:08.763Z,101096.73
2019-01-21T05:27:41.783Z,101096.55
2019-01-21T05:31:18.763Z,101101.25
2019-01-21T05:34:42.479Z,101103.09
2019-01-21T05:38:29.824Z,101099.46
2019-01-21T05:42:08.837Z,101096.92
2019-01-21T05:46:06.321Z,101089.66
2019-01-21T05:50:09.318Z,101094.41
2019-01-21T05:53:52.775Z,101097.61
2019-01-21T05:57:29.045Z,101098.88
2019-01-21T06:01:24.888Z,101097.92
2019-01-21T06:04:45.809Z,101101.41
2019-01-21T06:08:33.070Z,101106.23
2019-01-21T06:12:00.884Z,101113.67
2019-01-21T06:16:15.442Z,101109.58
2019-01-21T06:19:47.762Z,101118.73
2019-01-21T06:23:01.955Z,101116.11
2019-01-21T06:27:01.806Z,101107.88
2019-01-21T06:30:48.764Z,101109.70
2019-01-21T06:33:56.862Z,101109.55
2019-01-21T06:37:36.618Z,101116.42
2019-01-21T06:41:17.069Z,101115.45
2019-01-21T06:44:56.422Z,101115.45
2019-01-21T06:48:41.761Z,101116.77
2019-01-21T06:52:27.629Z,101119.39
2019-01-21T06:56:26.761Z,101126.10
2019-01-21T07:00:09.780Z,101126.10
2019-01-21T07:03:43.502Z,101128.84
2019-01-21T07:07:19.053Z,101127.68
2019-01-21T07:10:44.862Z,101131.86
2019-01-21T07:14:41.398Z,101137.33
2019-01-21T07:18:39.280Z,101133.20
2019-01-21T07:22:55.783Z,101129.42
2019-01-21T07:26:36.798Z,101128.88
2019-01-21T07:43:49.898Z,101125.45
2019-01-21T07:47:41.797Z,101131.66
2019-01-21T07:51:25.959Z,101134.02
2019-01-21T07:55:00.995Z,101133.78
2019-01-21T07:59:12.321Z,101139.19
2019-01-21T08:02:30.506Z,101134.44
2019-01-21T08:06:15.858Z,101134.28
2019-01-21T08:10:33.300Z,101133.25
2019-01-21T08:30:23.337Z,101141.96
2019-01-21T08:33:40.725Z,101149.61
2019-01-21T08:36:47.888Z,101152.49
2019-01-21T08:40:28.944Z,101152.88
2019-01-21T08:44:13.843Z,101152.70
2019-01-21T08:48:14.366Z,101157.86
2019-01-21T08:51:43.465Z,101159.59
2019-01-21T08:55:16.781Z,101161.18
2019-01-21T08:58:39.252Z,101161.72
2019-01-21T09:04:50.407Z,101158.94
2019-01-21T09:08:44.856Z,101166.97
2019-01-21T09:12:32.826Z,101165.58
2019-01-21T09:16:28.826Z,101167.63
2019-01-21T09:20:33.307Z,101171.69
2019-01-21T09:24:22.756Z,101176.47
2019-01-21T09:27:46.917Z,101177.62
2019-01-21T09:31:29.306Z,101176.23
2019-01-21T09:34:56.277Z,101183.88
2019-01-21T09:38:32.310Z,101181.38
2019-01-21T09:42:06.070Z,101179.75
2019-01-21T09:45:31.658Z,101182.49
2019-01-21T09:48:00.377Z,101173.89
2019-01-21T09:50:32.316Z,101173.89
2019-01-21T09:53:04.045Z,101180.41
2019-01-21T09:55:35.781Z,101184.84
2019-01-21T09:58:10.922Z,101185.16
2019-01-21T10:00:42.800Z,101189.78
2019-01-21T10:03:14.065Z,101186.04
2019-01-21T10:05:46.873Z,101187.43
2019-01-21T10:08:48.786Z,101176.85
2019-01-21T10:11:54.752Z,101178.47
2019-01-21T10:15:18.477Z,101176.66
2019-01-21T10:21:21.817Z,101165.50
2019-01-21T10:24:50.447Z,101163.31
2019-01-21T10:28:29.989Z,101154.33
2019-01-21T10:32:48.417Z,101145.50
2019-01-21T10:36:21.485Z,101141.19
2019-01-21T10:39:51.776Z,101139.07
2019-01-21T10:43:35.296Z,101143.66
2019-01-21T10:47:38.729Z,101141.31
2019-01-21T10:50:57.626Z,101138.05
2019-01-21T10:54:17.756Z,101129.27
2019-01-21T10:57:16.508Z,101129.27
2019-01-21T11:00:58.839Z,101123.18
2019-01-21T11:04:09.866Z,101111.34
2019-01-21T11:08:34.811Z,101111.24
2019-01-21T11:12:24.774Z,101111.64
2019-01-21T11:15:34.770Z,101109.44
2019-01-21T11:19:22.157Z,101106.28
2019-01-21T11:22:12.738Z,101095.31
2019-01-21T11:25:53.419Z,101087.96
2019-01-21T11:29:37.787Z,101085.25
2019-01-21T11:33:07.255Z,101081.73
2019-01-21T11:36:34.765Z,101077.22
2019-01-21T11:40:05.928Z,101073.64
2019-01-21T11:43:47.301Z,101068.22
2019-01-21T11:47:23.903Z,101058.03
2019-01-21T11:50:42.626Z,101053.98
2019-01-21T11:54:13.915Z,101054.05
2019-01-21T11:57:51.563Z,101054.05
2019-01-21T12:01:56.692Z,101027.22
2019-01-21T12:04:46.267Z,101027.22
2019-01-21T12:08:55.063Z,101036.29
2019-01-21T12:12:32.778Z,101026.08
2019-01-21T12:15:44.822Z,101024.41
2019-01-21T12:19:07.397Z,101020.41
2019-01-21T12:22:45.310Z,101014.95
2019-01-21T12:25:44.797Z,101007.91
2019-01-21T12:29:10.593Z,101002.05
2019-01-21T12:32:58.302Z,100981.72
2019-01-21T12:36:07.777Z,100981.72
2019-01-21T12:39:28.818Z,100977.44
2019-01-21T12:43:06.757Z,100967.07
2019-01-21T12:46:39.937Z,100974.11
2019-01-21T12:50:09.720Z,100968.08
2019-01-21T13:02:53.610Z,100943.93
2019-01-21T13:06:18.728Z,100920.89
2019-01-21T13:09:17.262Z,100920.89
2019-01-21T13:12:32.689Z,100935.64
2019-01-21T13:15:44.291Z,100936.98
2019-01-21T13:19:39.549Z,100936.98
2019-01-21T13:23:01.958Z,100938.52
2019-01-21T13:26:33.568Z,100931.92
2019-01-21T13:30:07.831Z,100912.51
2019-01-21T13:33:23.763Z,100910.94
2019-01-21T13:36:41.563Z,100909.52
2019-01-21T13:40:17.282Z,100909.67
2019-01-21T13:43:37.431Z,100893.27
2019-01-21T13:47:11.336Z,100889.39
2019-01-21T13:50:19.291Z,100897.97
2019-01-21T13:54:30.844Z,100888.88
2019-01-21T13:58:21.348Z,100885.30
2019-01-21T14:01:48.772Z,100872.32
2019-01-21T14:05:38.023Z,100878.75
2019-01-21T14:09:25.307Z,100887.53
2019-01-21T14:12:11.740Z,100885.67
2019-01-21T14:15:30.280Z,100883.48
2019-01-21T14:19:01.295Z,100878.55
2019-01-21T14:22:58.297Z,100885.59
2019-01-21T14:26:48.739Z,100880.61
2019-01-21T14:29:53.921Z,100879.30
2019-01-21T14:33:29.784Z,100887.53
2019-01-21T14:36:32.579Z,100886.95
2019-01-21T14:39:45.425Z,100875.07
2019-01-21T14:43:30.407Z,100875.07
2019-01-21T14:47:14.702Z,100882.39
2019-01-21T14:50:42.392Z,100866.80
2019-01-21T14:54:02.800Z,100881.11
2019-01-21T14:57:43.745Z,100882.46
2019-01-21T15:01:08.957Z,100877.38
2019-01-21T15:04:55.305Z,100870.34
2019-01-21T15:08:12.338Z,100876.73
2019-01-21T15:12:07.496Z,100878.47
2019-01-21T15:16:07.309Z,100867.14
2019-01-21T15:19:38.034Z,100856.31
2019-01-21T15:23:11.041Z,100844.58
2019-01-21T15:26:35.728Z,100846.39
2019-01-21T15:30:06.330Z,100836.98
2019-01-21T15:33:39.047Z,100826.26
2019-01-21T15:37:27.334Z,100821.20
2019-01-21T15:41:19.092Z,100823.14
2019-01-21T15:45:12.110Z,100833.39
2019-01-21T15:49:00.125Z,100834.25
2019-01-21T15:52:33.756Z,100825.78
2019-01-21T15:55:50.563Z,100817.67
2019-01-21T15:59:25.441Z,100817.27
2019-01-21T16:02:42.403Z,100817.27
2019-01-21T16:06:04.711Z,100818.73
2019-01-21T16:09:46.416Z,100820.36
2019-01-21T16:13:17.279Z,100823.14
2019-01-21T16:17:28.388Z,100817.44
2019-01-21T16:20:18.301Z,100821.57
2019-01-21T16:24:21.288Z,100825.23
2019-01-21T16:27:05.558Z,100819.53
2019-01-21T16:29:50.339Z,100813.69
2019-01-21T16:33:51.752Z,100803.84
2019-01-21T16:37:12.620Z,100811.06
2019-01-21T16:41:22.373Z,100803.52
2019-01-21T16:43:54.300Z,100803.52
2019-01-21T16:46:25.715Z,100800.34
2019-01-21T16:48:57.315Z,100798.56
2019-01-21T16:51:28.723Z,100799.14
2019-01-21T16:53:59.645Z,100802.72
2019-01-21T16:56:31.298Z,100797.04
2019-01-21T16:59:02.709Z,100797.04
2019-01-21T17:01:33.362Z,100800.48
2019-01-21T17:04:04.747Z,100802.52
2019-01-21T17:06:36.304Z,100797.04
2019-01-21T17:09:12.345Z,100802.80
2019-01-21T17:11:44.402Z,100797.04
2019-01-21T17:14:15.731Z,100799.55
2019-01-21T17:16:46.360Z,100793.36
2019-01-21T17:19:18.080Z,100787.84
2019-01-21T17:21:49.373Z,100789.81
2019-01-21T17:24:20.728Z,100792.14
2019-01-21T17:26:51.929Z,100795.09
2019-01-21T17:29:23.432Z,100793.93
2019-01-21T17:31:55.000Z,100788.55
2019-01-21T17:37:07.683Z,100785.19
2019-01-21T17:39:38.406Z,100778.55
2019-01-21T17:42:10.250Z,100778.92
2019-01-21T17:44:41.699Z,100776.58
2019-01-21T17:47:12.350Z,100774.65
2019-01-21T17:49:43.772Z,100773.94
2019-01-21T17:52:14.403Z,100770.16
2019-01-21T17:54:45.867Z,100766.81
2019-01-21T17:57:17.340Z,100768.69
2019-01-21T17:59:48.725Z,100757.51
2019-01-21T18:02:20.291Z,100755.52
2019-01-21T18:04:52.299Z,100754.45
2019-01-21T18:07:23.718Z,100753.81
2019-01-21T18:09:54.347Z,100756.52
2019-01-21T18:12:25.745Z,100754.11
2019-01-21T18:14:56.330Z,100757.30
2019-01-21T18:17:28.325Z,100755.73
2019-01-21T18:19:59.752Z,100757.53
2019-01-21T18:22:30.366Z,100759.02
2019-01-21T18:25:01.702Z,100755.86
2019-01-21T18:27:32.415Z,100750.49
2019-01-21T18:30:03.903Z,100746.18
2019-01-21T18:32:35.734Z,100754.79
2019-01-21T18:35:08.933Z,100753.34
2019-01-21T18:37:40.754Z,100756.48
2019-01-21T18:40:15.416Z,100759.58
2019-01-21T18:42:48.311Z,100757.31
2019-01-21T18:45:27.359Z,100758.03
2019-01-21T18:48:00.355Z,100760.27
2019-01-21T18:50:32.501Z,100760.78
2019-01-21T18:53:04.817Z,100760.67
2019-01-21T18:55:36.824Z,100763.00
2019-01-21T18:58:08.801Z,100759.83
2019-01-21T19:00:40.812Z,100761.66
2019-01-21T19:03:12.802Z,100755.72
2019-01-21T19:05:44.761Z,100757.83
2019-01-21T19:08:16.361Z,100766.09
2019-01-21T19:10:48.663Z,100771.39
2019-01-21T19:13:20.925Z,100768.41
2019-01-21T19:15:53.310Z,100768.53
2019-01-21T19:18:25.331Z,100768.39
2019-01-21T19:20:57.352Z,100771.77
2019-01-21T19:23:29.538Z,100761.33
2019-01-21T19:26:01.726Z,100760.84
2019-01-21T19:28:33.266Z,100756.72
2019-01-21T19:31:05.269Z,100755.84
2019-01-21T19:33:37.291Z,100753.70
2019-01-21T19:36:09.842Z,100749.80
2019-01-21T19:38:41.850Z,100747.49
2019-01-21T19:41:13.811Z,100740.54
2019-01-21T19:43:45.880Z,100756.73
2019-01-21T19:46:17.847Z,100754.38
2019-01-21T19:48:49.826Z,100752.81
2019-01-21T19:51:21.807Z,100746.74
2019-01-21T19:53:53.849Z,100753.41
2019-01-21T19:56:25.808Z,100745.28
2019-01-21T19:58:57.855Z,100745.95
2019-01-21T20:01:29.807Z,100739.08
2019-01-21T20:04:01.823Z,100741.77
2019-01-21T20:06:33.801Z,100731.79
2019-01-21T20:09:08.381Z,100727.77
2019-01-21T20:11:40.764Z,100720.05
2019-01-21T20:14:11.669Z,100721.72
2019-01-21T20:16:44.085Z,100714.95
2019-01-21T20:19:16.890Z,100712.89
2019-01-21T20:21:48.813Z,100709.70
2019-01-21T20:24:20.873Z,100707.62
2019-01-21T20:26:52.833Z,100709.92
2019-01-21T20:29:24.847Z,100715.03
2019-01-21T20:31:56.802Z,100710.09
2019-01-21T20:34:28.869Z,100708.31
2019-01-21T20:37:01.297Z,100708.84
2019-01-21T20:39:33.797Z,100702.02
2019-01-21T20:42:05.792Z,100702.50
2019-01-21T20:44:38.514Z,100701.41
2019-01-21T20:47:10.807Z,100702.53
2019-01-21T20:49:43.831Z,100702.53
2019-01-21T20:52:15.812Z,100706.59
2019-01-21T20:54:47.984Z,100695.70
2019-01-21T20:57:21.022Z,100699.01
2019-01-21T20:59:53.857Z,100695.94
2019-01-21T21:02:25.996Z,100693.91
2019-01-21T21:04:59.394Z,100684.06
2019-01-21T21:07:33.054Z,100687.38
2019-01-21T21:10:07.361Z,100693.12
2019-01-21T21:12:40.303Z,100691.84
2019-01-21T21:15:24.318Z,100695.05
2019-01-21T21:17:59.100Z,100688.45
2019-01-21T21:20:32.051Z,100689.85
2019-01-21T21:23:05.019Z,100684.48
2019-01-21T21:25:38.049Z,100685.80
2019-01-21T21:28:11.318Z,100680.25
2019-01-21T21:30:44.559Z,100683.66
2019-01-21T21:33:17.256Z,100670.28
2019-01-21T21:35:50.299Z,100670.28
2019-01-21T21:38:23.059Z,100679.68
2019-01-21T21:40:56.289Z,100682.58
2019-01-21T21:43:29.058Z,100679.61
2019-01-21T21:46:02.838Z,100676.17
2019-01-21T21:48:35.471Z,100674.13
2019-01-21T21:51:08.304Z,100664.88
2019-01-21T21:53:41.295Z,100663.31
2019-01-21T21:56:15.038Z,100663.39
2019-01-21T21:58:48.268Z,100662.11
2019-01-21T22:01:24.005Z,100658.35
2019-01-21T22:03:56.105Z,100662.03
2019-01-21T22:06:28.856Z,100656.19
2019-01-21T22:09:01.554Z,100648.67
2019-01-21T22:11:33.985Z,100652.09
2019-01-21T22:14:07.373Z,100646.59
2019-01-21T22:16:40.301Z,100649.08
2019-01-21T22:19:13.409Z,100650.34
2019-01-21T22:21:45.856Z,100648.80
2019-01-21T22:24:18.330Z,100643.59
2019-01-21T22:26:50.264Z,100643.34
2019-01-21T22:29:22.381Z,100642.44
2019-01-21T22:31:54.057Z,100638.45
2019-01-21T22:34:26.474Z,100639.81
2019-01-21T22:36:58.061Z,100632.64
2019-01-21T22:39:29.756Z,100631.77
2019-01-21T22:42:00.477Z,100634.77
2019-01-21T22:44:32.294Z,100633.73
2019-01-21T22:47:04.052Z,100633.73
2019-01-21T22:49:35.722Z,100634.45
2019-01-21T22:53:13.297Z,100623.06
2019-01-21T22:55:44.870Z,100623.06
2019-01-21T22:58:16.420Z,100624.44
2019-01-21T23:01:32.753Z,100622.47
2019-01-21T23:04:04.613Z,100618.96
2019-01-21T23:06:36.384Z,100620.38
2019-01-21T23:09:11.277Z,100620.38
2019-01-21T23:11:42.828Z,100624.83
2019-01-21T23:14:14.585Z,100619.02
2019-01-21T23:16:46.333Z,100612.39
2019-01-21T23:19:17.837Z,100612.39
2019-01-21T23:21:49.610Z,100622.39
2019-01-21T23:24:21.722Z,100619.58
2019-01-21T23:26:53.352Z,100618.33
2019-01-21T23:29:25.583Z,100622.30
2019-01-21T23:31:57.366Z,100618.86
2019-01-21T23:34:29.748Z,100618.86
2019-01-21T23:37:00.479Z,100617.88
2019-01-21T23:39:32.638Z,100616.37
2019-01-21T23:42:04.901Z,100606.55
2019-01-21T23:44:36.775Z,100611.31
2019-01-21T23:47:07.721Z,100606.48
2019-01-21T23:49:38.502Z,100601.72
2019-01-21T23:52:10.260Z,100599.91
2019-01-21T23:54:41.857Z,100598.03
2019-01-21T23:57:13.786Z,100591.41
2019-01-21T23:59:44.479Z,100583.92
